FMEE Airport Information

Runway Information
Runway 12 Length 10499 ft width 148 ft
Elevation 38 ft Threshold 398 ft Heading 102
Runway 30 Length 10499 ft Width 148 ft
Elevation 31 ft Threshold ft Heading 282
Runway 14 Length 8760 ft width 148 ft
Elevation 27 ft Threshold 328 ft Heading 116
Runway 32 Length 8760 ft Width 148 ft
Elevation 65 ft Threshold 1165 ft Heading 296
Airport Frequencies
Type A/G Name GILLOT RDO Frequency 347.6 MHZ
Type APP Name GILLOT APP Frequency 119.4 MHZ
Type ATIS Name ATIS Frequency 126.8 MHZ
Type GND Name GILLOT GND Frequency 121.9 MHZ
Type TWR Name GILLOT TWR Frequency 118.4 MHZ
Airport Navaids
Type NDB Name St Denis Gillot Frequency 382 KHZ
Type VOR-DME Name St Denis Gillot Frequency 112900 KHZ
Airport Weather Information & NOTAM
ADDS - METARS form results

(1717 UTC 29 September 2022)
Data provider http://aviationweather.gov/metar/data/
 
METAR text: FMEE 291700Z AUTO 19004KT 150V230 9999 NCD 19/14 Q1019
Conditions at: FMEE (ST. DENIS/GILLOT, RE) observed 1700 UTC 29 September 2022
Temperature: 19.0°C (66°F)
Dewpoint: 14.0°C (57°F) [RH = 73%]
Pressure (altimeter): 30.09 inches Hg (1019.0 mb)
Winds: from the S (190 degrees) at 5 MPH (4 knots; 2.1 m/s)
Visibility: 6 or more miles (10+ km)
Ceiling: at least 12,000 feet AGL
Clouds: sky clear below 12,000 feet AGL
Weather: no significant weather observed at this time

METAR text: FMEE 291630Z AUTO 20004KT 170V230 9999 NCD 20/14 Q1019
Conditions at: FMEE (ST. DENIS/GILLOT, RE) observed 1630 UTC 29 September 2022
Temperature: 20.0°C (68°F)
Dewpoint: 14.0°C (57°F) [RH = 68%]
Pressure (altimeter): 30.09 inches Hg (1019.0 mb)
Winds: from the SSW (200 degrees) at 5 MPH (4 knots; 2.1 m/s)
Visibility: 6 or more miles (10+ km)
Ceiling: at least 12,000 feet AGL
Clouds: sky clear below 12,000 feet AGL
Weather: no significant weather observed at this time